Time;durP1;ratioP1;P1;durP2;ratioP2;P2;SDS_P1;SDS_P2;PMS_P1;PMS_P2;Temp;Humidity;BMP_temperature;BMP_pressure;BME280_temperature;BME280_humidity;BME280_pressure;Samples;Min_cycle;Max_cycle;Signal;HPM_P1;HPM_P2
2023/02/15 00:01:34;;;;;;;45.15;23.60;;;4.40;1.00;;;;;;6344958;22;20233;-85
2023/02/15 00:03:59;;;;;;;38.70;23.10;;;4.40;30.90;;;;;;6373624;22;20562;-86
2023/02/15 00:06:25;;;;;;;45.07;25.37;;;4.40;27.40;;;;;;6373230;22;20146;-85
2023/02/15 00:08:51;;;;;;;41.97;24.30;;;4.30;52.70;;;;;;6345823;22;20525;-86
2023/02/15 00:11:39;;;;;;;47.10;25.27;;;4.30;89.00;;;;;;6374040;22;20142;-85
2023/02/15 00:14:17;;;;;;;40.13;23.48;;;4.30;99.90;;;;;;6373039;22;20349;-85
2023/02/15 00:16:52;;;;;;;38.10;23.00;;;4.20;99.90;;;;;;6346887;22;20146;-86
2023/02/15 00:19:36;;;;;;;35.58;21.83;;;4.20;99.90;;;;;;6372157;22;20684;-85
2023/02/15 00:22:04;;;;;;;39.05;21.50;;;4.20;99.90;;;;;;6373013;22;20195;-86
2023/02/15 00:24:33;;;;;;;38.63;20.83;;;4.20;99.90;;;;;;6347269;22;20189;-87
2023/02/15 00:27:03;;;;;;;39.47;23.30;;;4.20;70.30;;;;;;6348200;22;20169;-86
2023/02/15 00:29:28;;;;;;;42.03;22.83;;;4.20;81.10;;;;;;6374640;22;20270;-86
2023/02/15 00:31:54;;;;;;;41.47;23.90;;;4.20;96.90;;;;;;6343706;22;20150;-86
2023/02/15 00:34:27;;;;;;;40.13;22.90;;;4.10;99.90;;;;;;6370579;22;20180;-86
2023/02/15 00:37:03;;;;;;;;;;;;;;;;;;;;;
2023/02/15 00:39:28;;;;;;;46.15;22.75;;;4.00;99.90;;;;;;6371198;22;20221;-87
2023/02/15 00:41:56;;;;;;;39.03;23.47;;;4.00;99.90;;;;;;6371160;22;20176;-86
2023/02/15 00:44:29;;;;;;;43.83;24.20;;;3.90;99.90;;;;;;6371024;22;20295;-86
2023/02/15 00:46:55;;;;;;;41.13;21.45;;;3.90;99.90;;;;;;6369619;22;20135;-86
2023/02/15 00:49:23;;;;;;;43.10;23.20;;;3.90;99.90;;;;;;6371254;22;20259;-86
2023/02/15 00:51:51;;;;;;;37.50;21.63;;;3.90;99.90;;;;;;6370807;22;20138;-86
2023/02/15 00:54:19;;;;;;;44.63;23.23;;;3.90;99.90;;;;;;6371024;22;20148;-86
2023/02/15 00:56:45;;;;;;;41.50;22.85;;;3.90;99.90;;;;;;6370022;22;20149;-86
2023/02/15 00:59:11;;;;;;;43.80;22.77;;;3.90;99.90;;;;;;6371338;22;20166;-86
2023/02/15 01:01:39;;;;;;;44.10;22.50;;;3.80;99.90;;;;;;6369270;22;21002;-85
2023/02/15 01:04:07;;;;;;;40.70;22.77;;;3.80;99.90;;;;;;6371085;22;20134;-86
2023/02/15 01:06:39;;;;;;;45.00;22.38;;;3.80;99.90;;;;;;6370693;22;20154;-86
2023/02/15 01:09:07;;;;;;;41.08;23.50;;;3.80;99.90;;;;;;6343296;22;20193;-85
2023/02/15 01:11:33;;;;;;;39.17;21.15;;;3.80;99.90;;;;;;6342501;22;20165;-86
2023/02/15 01:13:59;;;;;;;44.93;24.30;;;3.80;99.90;;;;;;6371410;22;20594;-86
2023/02/15 01:16:26;;;;;;;38.40;22.40;;;3.80;99.90;;;;;;6374149;22;20617;-86
2023/02/15 01:18:54;;;;;;;49.92;25.35;;;3.70;99.90;;;;;;6346338;22;20197;-86
2023/02/15 01:21:24;;;;;;;43.55;23.48;;;3.70;99.90;;;;;;6375054;22;20177;-87
2023/02/15 01:24:20;;;;;;;44.85;23.40;;;3.70;99.90;;;;;;6348787;22;20222;-86
2023/02/15 01:26:48;;;;;;;39.85;22.85;;;3.70;99.90;;;;;;6344814;22;20213;-86
2023/02/15 01:29:14;;;;;;;45.67;23.90;;;3.60;99.90;;;;;;6344956;22;20214;-86
2023/02/15 01:31:42;;;;;;;42.90;24.87;;;3.60;99.90;;;;;;6341621;22;20154;-87
2023/02/15 01:34:10;;;;;;;43.70;22.65;;;3.60;99.90;;;;;;6369329;22;20490;-86
2023/02/15 01:36:52;;;;;;;42.20;24.73;;;3.60;99.90;;;;;;6368917;22;20138;-86
2023/02/15 01:39:27;;;;;;;44.17;23.93;;;3.50;99.90;;;;;;6341930;22;20240;-85
2023/02/15 01:42:00;;;;;;;41.78;23.55;;;3.50;99.90;;;;;;6368127;22;20158;-85
2023/02/15 01:44:53;;;;;;;45.75;25.33;;;3.50;99.90;;;;;;6343667;22;20146;-86
2023/02/15 01:47:40;;;;;;;48.78;23.98;;;3.50;99.90;;;;;;6350398;22;20155;-88
2023/02/15 01:50:22;;;;;;;;;;;;;;;;;;;;;
2023/02/15 01:53:05;;;;;;;41.97;23.98;;;3.50;99.90;;;;;;6375319;22;20538;-86
2023/02/15 01:55:46;;;;;;;43.60;23.50;;;3.40;99.90;;;;;;6353131;22;20158;-86
2023/02/15 01:58:15;;;;;;;41.65;23.65;;;3.40;99.90;;;;;;6353929;22;20237;-85
2023/02/15 02:00:41;;;;;;;43.00;25.23;;;3.40;99.90;;;;;;6344492;22;20244;-85
2023/02/15 02:03:09;;;;;;;47.70;24.43;;;3.30;99.90;;;;;;6375084;22;20166;-85
2023/02/15 02:05:35;;;;;;;47.55;25.60;;;3.30;99.90;;;;;;6350967;22;20154;-85
2023/02/15 02:08:02;;;;;;;49.60;26.30;;;3.30;99.90;;;;;;6374680;22;20143;-85
2023/02/15 02:10:47;;;;;;;49.58;26.75;;;3.20;99.90;;;;;;6371939;22;20387;-85
2023/02/15 02:13:15;;;;;;;44.95;24.67;;;3.20;99.90;;;;;;6346600;22;20470;-85
2023/02/15 02:15:49;;;;;;;52.97;26.65;;;3.20;99.90;;;;;;6374306;22;20154;-86
2023/02/15 02:19:01;;;;;;;46.65;25.15;;;3.20;99.90;;;;;;6349598;22;20496;-86
2023/02/15 02:21:58;;;;;;;;;;;;;;;;;;;;;
2023/02/15 02:25:08;;;;;;;43.80;23.80;;;3.10;99.90;;;;;;6377762;22;20150;-84
2023/02/15 02:27:43;;;;;;;47.30;23.05;;;3.10;99.90;;;;;;6359645;22;20157;-86
2023/02/15 02:30:47;;;;;;;49.65;24.73;;;3.10;99.90;;;;;;6349298;22;20196;-85
2023/02/15 02:33:19;;;;;;;51.85;25.95;;;3.10;99.90;;;;;;6377112;22;20531;-85
2023/02/15 02:36:06;;;;;;;44.85;25.30;;;3.10;99.90;;;;;;6377657;22;20146;-86
2023/02/15 02:38:50;;;;;;;48.60;24.58;;;3.10;99.90;;;;;;6378544;22;20593;-87
2023/02/15 02:41:24;;;;;;;46.50;24.98;;;3.00;99.90;;;;;;6349627;22;20157;-86
2023/02/15 02:44:04;;;;;;;49.88;24.60;;;3.00;99.90;;;;;;6348880;22;20585;-86
2023/02/15 02:46:44;;;;;;;45.70;24.30;;;3.00;99.90;;;;;;6378119;22;20207;-86
2023/02/15 02:49:17;;;;;;;47.90;25.83;;;3.00;99.90;;;;;;6378358;22;20189;-86
2023/02/15 02:51:44;;;;;;;50.97;26.05;;;3.00;99.90;;;;;;6377123;22;20519;-86
2023/02/15 02:54:12;;;;;;;58.10;28.77;;;3.00;99.90;;;;;;6379370;22;20172;-87
2023/02/15 02:56:58;;;;;;;;;;;;;;;;;;;;;
2023/02/15 02:59:33;;;;;;;52.47;25.80;;;3.00;99.90;;;;;;6374194;22;20265;-86
2023/02/15 03:02:02;;;;;;;45.63;26.20;;;3.00;99.90;;;;;;6376652;22;20154;-86
2023/02/15 03:04:35;;;;;;;48.70;25.67;;;3.00;99.90;;;;;;6350222;22;20146;-86
2023/02/15 03:07:11;;;;;;;48.50;25.55;;;3.00;99.90;;;;;;6377265;22;20462;-85
2023/02/15 03:09:43;;;;;;;55.45;25.92;;;3.00;99.90;;;;;;6376445;22;20178;-85
2023/02/15 03:12:12;;;;;;;50.95;26.55;;;2.90;99.90;;;;;;6377082;22;20157;-86
2023/02/15 03:14:50;;;;;;;56.40;27.25;;;2.90;99.90;;;;;;6377461;22;20181;-86
2023/02/15 03:17:33;;;;;;;52.35;26.02;;;2.90;99.90;;;;;;6347280;22;20147;-85
2023/02/15 03:20:04;;;;;;;45.42;24.05;;;2.90;99.90;;;;;;6348940;22;20186;-85
2023/02/15 03:22:38;;;;;;;54.92;25.00;;;2.90;99.90;;;;;;6348038;22;20145;-85
2023/02/15 03:25:31;;;;;;;49.90;25.70;;;2.90;99.90;;;;;;6349163;22;20138;-86
2023/02/15 03:28:06;;;;;;;53.20;25.58;;;2.90;99.90;;;;;;6376919;22;20150;-86
2023/02/15 03:30:36;;;;;;;48.22;25.02;;;2.80;99.90;;;;;;6349239;22;20194;-85
2023/02/15 03:33:06;;;;;;;49.03;25.45;;;2.80;99.90;;;;;;6377309;22;20138;-86
2023/02/15 03:35:59;;;;;;;49.72;24.85;;;2.80;99.90;;;;;;6350059;22;20150;-86
2023/02/15 03:38:53;;;;;;;47.92;25.15;;;2.70;99.90;;;;;;6377411;22;20131;-85
2023/02/15 03:41:32;;;;;;;54.95;26.42;;;2.80;99.90;;;;;;6379803;22;20155;-85
2023/02/15 03:44:03;;;;;;;56.05;26.33;;;2.70;99.90;;;;;;6380928;22;20132;-87
2023/02/15 03:46:37;;;;;;;50.22;25.70;;;2.70;1.00;;;;;;6379985;22;20182;-86
2023/02/15 03:49:06;;;;;;;54.25;27.00;;;2.60;1.00;;;;;;6351720;22;20176;-85
2023/02/15 03:51:37;;;;;;;62.00;27.92;;;2.60;1.00;;;;;;6379954;22;20195;-86
2023/02/15 03:54:38;;;;;;;43.72;24.20;;;2.60;1.00;;;;;;6352520;22;20143;-85
2023/02/15 04:03:17;;;;;;;55.45;26.88;;;2.50;1.00;;;;;;6380190;22;20253;-86
2023/02/15 04:05:46;;;;;;;48.70;26.38;;;2.50;1.00;;;;;;6367393;22;20154;-86
2023/02/15 04:08:12;;;;;;;52.17;27.17;;;2.50;1.00;;;;;;6345955;22;20154;-86
2023/02/15 04:10:56;;;;;;;63.30;27.40;;;2.50;1.00;;;;;;6376951;22;20162;-86
2023/02/15 04:13:29;;;;;;;42.00;23.15;;;2.50;1.00;;;;;;6377407;22;20353;-86
2023/02/15 04:16:03;;;;;;;47.38;24.48;;;2.40;1.00;;;;;;6378932;22;20139;-87
2023/02/15 04:27:21;;;;;;;52.75;25.55;;;2.40;1.00;;;;;;6377242;22;20225;-87
2023/02/15 04:29:49;;;;;;;54.50;28.30;;;2.30;1.00;;;;;;6327062;22;20181;-86
2023/02/15 04:32:15;;;;;;;51.78;26.25;;;2.30;1.00;;;;;;6378091;22;20157;-86
2023/02/15 04:34:54;;;;;;;56.27;24.93;;;2.30;1.00;;;;;;6380021;22;20197;-87
2023/02/15 04:37:22;;;;;;;56.83;27.92;;;2.30;1.00;;;;;;6379612;22;20357;-86
2023/02/15 04:39:50;;;;;;;54.20;27.33;;;2.20;1.00;;;;;;6378323;22;20334;-86
2023/02/15 04:42:18;;;;;;;69.40;30.77;;;2.20;1.00;;;;;;6379730;22;20536;-86
2023/02/15 04:44:52;;;;;;;59.25;29.30;;;2.20;1.00;;;;;;6349340;22;20156;-86
2023/02/15 04:47:17;;;;;;;54.25;27.20;;;2.20;1.00;;;;;;6351164;22;20139;-87
2023/02/15 04:49:52;;;;;;;57.23;26.90;;;2.20;1.00;;;;;;6350666;22;20178;-86
2023/02/15 04:52:37;;;;;;;51.33;24.70;;;2.20;1.00;;;;;;6379829;22;20145;-87
2023/02/15 04:55:06;;;;;;;55.40;27.30;;;2.20;1.00;;;;;;6380963;22;20154;-87
2023/02/15 04:57:41;;;;;;;54.80;26.90;;;2.20;1.00;;;;;;6351256;22;20206;-86
2023/02/15 05:00:08;;;;;;;47.33;25.92;;;2.20;1.00;;;;;;6377789;22;20182;-85
2023/02/15 05:02:41;;;;;;;42.67;24.63;;;2.20;1.00;;;;;;6381933;22;20161;-87
2023/02/15 05:05:09;;;;;;;58.13;26.08;;;2.30;1.00;;;;;;6382847;22;20149;-87
2023/02/15 05:07:37;;;;;;;59.90;29.05;;;2.30;1.00;;;;;;6382009;22;20169;-86
2023/02/15 05:10:06;;;;;;;45.80;25.83;;;2.30;1.00;;;;;;6354121;22;20178;-85
2023/02/15 05:12:31;;;;;;;48.95;26.13;;;2.20;1.00;;;;;;6381335;22;20151;-86
2023/02/15 05:14:57;;;;;;;49.90;25.57;;;2.20;1.00;;;;;;6353280;22;20178;-86
2023/02/15 05:17:23;;;;;;;52.83;25.17;;;2.20;1.00;;;;;;6384216;22;20154;-86
2023/02/15 05:19:50;;;;;;;51.20;29.03;;;2.20;1.00;;;;;;6383238;22;20185;-85
2023/02/15 05:22:16;;;;;;;49.75;26.50;;;2.20;1.00;;;;;;6380582;22;20168;-86
2023/02/15 05:30:15;;;;;;;52.20;25.05;;;2.20;1.00;;;;;;6381943;22;20181;-86
2023/02/15 05:32:50;;;;;;;46.05;23.63;;;2.20;1.00;;;;;;6382020;22;20205;-87
2023/02/15 05:35:39;;;;;;;51.60;26.20;;;2.20;1.00;;;;;;6352198;22;20145;-86
2023/02/15 05:38:04;;;;;;;46.78;23.25;;;2.20;1.00;;;;;;6353395;22;20147;-86
2023/02/15 05:40:30;;;;;;;51.80;27.03;;;2.20;1.00;;;;;;6380211;22;20178;-86
2023/02/15 05:42:58;;;;;;;77.80;30.80;;;2.20;1.00;;;;;;6380094;22;20490;-86
2023/02/15 05:45:24;;;;;;;49.92;24.45;;;2.20;1.00;;;;;;6352127;22;20431;-85
2023/02/15 05:47:50;;;;;;;48.47;23.90;;;2.20;1.00;;;;;;6381122;22;20168;-85
2023/02/15 05:50:25;;;;;;;46.00;26.20;;;2.20;1.00;;;;;;6380988;22;20166;-86
2023/02/15 05:52:51;;;;;;;55.17;26.25;;;2.20;1.00;;;;;;6378589;22;20424;-86
2023/02/15 05:55:19;;;;;;;45.97;24.80;;;2.20;1.00;;;;;;6380525;22;20150;-86
2023/02/15 05:57:44;;;;;;;50.13;25.95;;;2.10;1.00;;;;;;6380570;22;20157;-86
2023/02/15 06:00:14;;;;;;;58.80;30.00;;;2.10;1.00;;;;;;6352543;22;20177;-85
2023/02/15 06:02:40;;;;;;;51.72;25.63;;;2.10;1.00;;;;;;6381444;22;20579;-86
2023/02/15 06:05:06;;;;;;;55.43;28.70;;;2.00;1.00;;;;;;6381265;22;20149;-85
2023/02/15 06:07:42;;;;;;;57.43;27.90;;;2.00;1.00;;;;;;6380790;22;20150;-86
2023/02/15 06:10:16;;;;;;;53.00;25.15;;;2.00;1.00;;;;;;6379543;22;20394;-85
2023/02/15 06:12:43;;;;;;;56.30;27.73;;;2.00;1.00;;;;;;6379868;22;20516;-85
2023/02/15 06:15:13;;;;;;;53.38;25.70;;;2.00;1.00;;;;;;6380201;22;20154;-85
2023/02/15 06:17:42;;;;;;;59.00;25.00;;;2.00;1.00;;;;;;6374873;22;20138;-86
2023/02/15 06:20:08;;;;;;;61.22;29.92;;;2.00;1.00;;;;;;6347271;22;20523;-85
2023/02/15 06:22:34;;;;;;;48.03;26.20;;;2.00;1.00;;;;;;6350263;22;20234;-88
2023/02/15 06:25:02;;;;;;;49.70;25.30;;;2.00;1.00;;;;;;6377828;22;20146;-86
2023/02/15 06:27:37;;;;;;;48.10;24.33;;;2.00;1.00;;;;;;6376679;22;20138;-86
2023/02/15 06:30:05;;;;;;;48.53;25.60;;;2.00;1.00;;;;;;6378179;22;20195;-85
2023/02/15 06:32:45;;;;;;;44.20;25.55;;;2.00;1.00;;;;;;6349742;22;20188;-86
2023/02/15 06:35:11;;;;;;;54.42;26.00;;;2.00;1.00;;;;;;6350541;22;20530;-86
2023/02/15 06:37:46;;;;;;;51.87;26.07;;;2.00;1.00;;;;;;6375744;22;20229;-86
2023/02/15 06:40:22;;;;;;;43.35;23.63;;;2.00;1.00;;;;;;6347271;22;20186;-86
2023/02/15 06:42:55;;;;;;;56.22;25.13;;;2.00;1.00;;;;;;6377243;22;20170;-86
2023/02/15 06:45:21;;;;;;;51.88;25.45;;;2.00;1.00;;;;;;6377556;22;20133;-86
2023/02/15 06:47:49;;;;;;;54.63;27.57;;;2.00;1.00;;;;;;6378299;22;20143;-85
2023/02/15 06:53:13;;;;;;;53.33;28.73;;;2.00;1.00;;;;;;6352392;22;20150;-86
2023/02/15 06:55:46;;;;;;;61.27;27.90;;;2.10;1.00;;;;;;6339969;22;20162;-86
2023/02/15 06:58:15;;;;;;;58.53;25.23;;;2.10;1.00;;;;;;6368287;22;20142;-87
2023/02/15 07:15:55;;;;;;;43.53;21.50;;;2.90;99.90;;;;;;6307179;22;20265;-86
2023/02/15 07:40:13;;;;;;;33.47;21.20;;;9.20;1.00;;;;;;5872539;24;20455;-86
2023/02/15 07:47:21;;;;;;;;;;;;;;;;;;;;;
2023/02/15 07:54:15;;;;;;;29.67;20.17;;;17.10;99.90;;;;;;6006005;23;20467;-88
2023/02/15 09:57:41;;;;;;;23.70;19.37;;;22.20;99.90;;;;;;6322691;22;20454;-87
2023/02/15 10:34:39;;;;;;;22.40;17.90;;;23.70;99.90;;;;;;6337792;22;20439;-86
2023/02/15 10:45:11;;;;;;;25.93;20.40;;;23.00;99.90;;;;;;6272082;22;20447;-86
2023/02/15 10:55:12;;;;;;;24.67;19.90;;;20.60;99.90;;;;;;6270203;22;20424;-87
2023/02/15 10:57:59;;;;;;;24.53;19.27;;;19.80;99.90;;;;;;6310368;22;20389;-86
2023/02/15 11:04:26;;;;;;;;;;;;;;;;;;;;;
2023/02/15 11:32:19;;;;;;;21.70;17.77;;;23.80;99.90;;;;;;6058384;23;20403;-88
2023/02/15 11:46:10;;;;;;;19.87;17.67;;;25.40;99.90;;;;;;6014027;23;20438;-88
2023/02/15 12:44:53;;;;;;;18.40;15.77;;;26.70;99.90;;;;;;6046259;23;20501;-87
2023/02/15 12:47:58;;;;;;;;;;;;;;;;;;;;;
2023/02/15 12:50:44;;;;;;;19.17;16.63;;;27.40;99.90;;;;;;6249372;22;20523;-85
2023/02/15 12:53:45;;;;;;;23.60;17.17;;;27.10;99.90;;;;;;6312953;22;20467;-86
2023/02/15 13:36:23;;;;;;;22.47;18.57;;;27.10;99.90;;;;;;6388333;22;20424;-87
2023/02/15 13:39:19;;;;;;;24.47;17.67;;;27.30;99.90;;;;;;6345929;22;20854;-87
2023/02/15 13:42:20;;;;;;;20.70;17.00;;;27.30;99.90;;;;;;6346611;22;20388;-88
2023/02/15 13:45:34;;;;;;;20.30;17.10;;;27.10;99.90;;;;;;6343651;22;20388;-86
2023/02/15 13:48:29;;;;;;;25.80;18.97;;;27.10;99.90;;;;;;6285105;22;20384;-87
2023/02/15 13:52:00;;;;;;;24.73;18.93;;;26.50;99.90;;;;;;6241690;23;20441;-87
2023/02/15 13:55:14;;;;;;;22.57;18.67;;;25.30;99.90;;;;;;6368241;22;20707;-87
2023/02/15 13:58:17;;;;;;;26.23;18.90;;;24.30;99.90;;;;;;6341695;22;20398;-87
2023/02/15 14:01:07;;;;;;;23.57;18.40;;;23.40;99.90;;;;;;6368491;22;20395;-87
2023/02/15 14:03:56;;;;;;;28.03;19.23;;;22.90;99.90;;;;;;6342916;22;20878;-87
2023/02/15 14:07:07;;;;;;;21.83;17.77;;;22.50;99.90;;;;;;6342161;22;20722;-87
2023/02/15 14:10:23;;;;;;;27.27;19.97;;;22.10;99.90;;;;;;6332253;22;20783;-87
2023/02/15 14:13:15;;;;;;;23.70;16.90;;;21.90;99.90;;;;;;6327569;22;20391;-88
2023/02/15 14:16:16;;;;;;;22.73;17.93;;;21.70;99.90;;;;;;6339159;22;20378;-87
2023/02/15 14:19:16;;;;;;;30.73;19.57;;;21.70;99.90;;;;;;6253607;22;20387;-87
2023/02/15 14:22:09;;;;;;;30.43;22.33;;;21.60;99.90;;;;;;6342006;22;20396;-86
2023/02/15 14:25:32;;;;;;;21.80;18.53;;;21.40;99.90;;;;;;6364202;22;20393;-86
2023/02/15 14:28:19;;;;;;;26.00;18.80;;;21.40;99.90;;;;;;6337911;22;20392;-87
2023/02/15 14:30:55;;;;;;;25.90;19.90;;;21.40;99.90;;;;;;6345450;22;20455;-86
2023/02/15 14:33:56;;;;;;;22.67;17.77;;;21.60;99.90;;;;;;6354810;22;21018;-89
2023/02/15 14:37:00;;;;;;;26.13;20.57;;;21.40;99.90;;;;;;6349514;22;20457;-86
2023/02/15 14:43:47;;;;;;;29.67;19.70;;;20.40;99.90;;;;;;6271821;22;20522;-87
2023/02/15 14:46:58;;;;;;;;;;;;;;;;;;;;;
2023/02/15 14:52:32;;;;;;;28.37;20.30;;;19.50;99.90;;;;;;6289503;22;20482;-87
2023/02/15 14:55:22;;;;;;;27.00;18.80;;;19.20;99.90;;;;;;6279655;22;20400;-87
2023/02/15 14:58:18;;;;;;;26.93;18.57;;;18.90;99.90;;;;;;6276322;22;20423;-87
2023/02/15 15:01:05;;;;;;;26.20;18.40;;;18.60;99.90;;;;;;6278534;22;20414;-87
2023/02/15 15:03:43;;;;;;;24.50;17.00;;;18.50;99.90;;;;;;6278931;22;20380;-87
2023/02/15 15:06:56;;;;;;;23.07;16.97;;;18.60;99.90;;;;;;6304357;22;20395;-86
2023/02/15 15:13:00;;;;;;;27.30;19.63;;;18.70;99.90;;;;;;6294449;22;20854;-88
2023/02/15 15:15:52;;;;;;;77.30;47.07;;;18.40;99.90;;;;;;6278621;22;20393;-87
2023/02/15 15:18:55;;;;;;;59.80;40.83;;;18.10;99.90;;;;;;6305747;22;20377;-87
2023/02/15 15:21:53;;;;;;;64.40;41.63;;;17.70;99.90;;;;;;6157356;23;21160;-85
2023/02/15 15:24:40;;;;;;;50.93;37.33;;;17.60;99.90;;;;;;6305380;22;20787;-88
2023/02/15 15:27:50;;;;;;;57.30;51.40;;;17.50;99.90;;;;;;6279945;22;20387;-87
2023/02/15 15:30:21;;;;;;;74.70;46.30;;;17.30;99.90;;;;;;6278753;22;20485;-86
2023/02/15 15:32:57;;;;;;;25.67;20.90;;;17.10;99.90;;;;;;6308315;22;20711;-87
2023/02/15 15:35:52;;;;;;;33.37;19.40;;;16.90;99.90;;;;;;6307299;22;20367;-86
2023/02/15 15:49:23;;;;;;;27.90;19.43;;;16.10;99.90;;;;;;6181635;23;20460;-87
2023/02/15 16:13:17;;;;;;;;;;;;;;;;;;;;;
2023/02/15 16:16:29;;;;;;;;;;;;;;;;;;;;;
2023/02/15 16:50:20;;;;;;;;;;;;;;;;;;;;;
2023/02/15 16:53:45;;;;;;;;;;;;;;;;;;;;;
2023/02/15 16:57:14;;;;;;;29.20;19.73;;;14.40;99.90;;;;;;6302669;22;20463;-88
2023/02/15 17:11:03;;;;;;;28.67;18.97;;;14.20;99.90;;;;;;6246559;23;20446;-91
2023/02/15 17:13:30;;;;;;;28.83;18.43;;;14.00;99.90;;;;;;6247623;22;20410;-86
2023/02/15 17:16:38;;;;;;;25.73;17.67;;;13.80;99.90;;;;;;6310402;22;20409;-88
2023/02/15 17:20:20;;;;;;;;;;;;;;;;;;;;;
2023/02/15 17:26:18;;;;;;;27.40;18.60;;;13.70;99.90;;;;;;6303002;22;20389;-88
2023/02/15 17:29:51;;;;;;;;;;;;;;;;;;;;;
2023/02/15 17:33:16;;;;;;;26.93;19.10;;;13.60;99.90;;;;;;6265480;22;20396;-88
2023/02/15 17:44:02;;;;;;;28.13;18.07;;;13.60;99.90;;;;;;6275227;22;20442;-90
2023/02/15 17:50:45;;;;;;;24.00;16.80;;;13.30;99.90;;;;;;6172830;22;20430;-89
2023/02/15 17:57:04;;;;;;;27.03;18.77;;;13.10;99.90;;;;;;6308650;22;20414;-92
2023/02/15 17:59:30;;;;;;;25.83;18.20;;;12.90;99.90;;;;;;6331694;22;20408;-91
2023/02/15 18:16:44;;;;;;;26.07;18.57;;;12.50;99.90;;;;;;6225049;23;20377;-91
2023/02/15 18:19:24;;;;;;;30.43;19.53;;;12.40;99.90;;;;;;6306301;22;20443;-88
2023/02/15 18:21:55;;;;;;;27.87;19.23;;;12.30;99.90;;;;;;6304308;22;20366;-87
2023/02/15 18:24:25;;;;;;;35.20;17.20;;;12.20;99.90;;;;;;6304059;22;20421;-86
2023/02/15 18:26:57;;;;;;;30.63;19.00;;;12.10;99.90;;;;;;6304709;22;20789;-87
2023/02/15 18:29:25;;;;;;;28.83;17.87;;;12.10;99.90;;;;;;6303553;22;20481;-87
2023/02/15 18:34:51;;;;;;;25.90;17.37;;;12.00;99.90;;;;;;6304334;22;20493;-87
2023/02/15 18:37:26;;;;;;;26.57;17.20;;;12.00;99.90;;;;;;6306100;22;20378;-87
2023/02/15 18:40:03;;;;;;;32.60;17.40;;;11.90;99.90;;;;;;6301871;22;20409;-87
2023/02/15 18:42:55;;;;;;;;;;;;;;;;;;;;;
2023/02/15 18:45:23;;;;;;;28.40;16.80;;;11.80;99.90;;;;;;6305207;22;20430;-87
2023/02/15 18:48:30;;;;;;;28.40;16.20;;;11.70;99.90;;;;;;6305752;22;20877;-87
2023/02/15 18:51:38;;;;;;;;;;;;;;;;;;;;;
2023/02/15 18:54:28;;;;;;;27.23;16.70;;;11.60;99.90;;;;;;6304477;22;20457;-86
2023/02/15 18:56:59;;;;;;;24.67;17.67;;;11.50;99.90;;;;;;6287293;22;20874;-87
2023/02/15 18:59:45;;;;;;;26.60;16.37;;;11.40;99.90;;;;;;6305096;22;20419;-87
2023/02/15 19:02:50;;;;;;;25.13;16.23;;;11.30;99.90;;;;;;6302943;22;20382;-87
2023/02/15 19:05:16;;;;;;;30.70;18.80;;;11.20;99.90;;;;;;6303880;22;20378;-87
2023/02/15 19:10:54;;;;;;;29.53;19.83;;;11.10;99.90;;;;;;6287842;22;20634;-87
2023/02/15 19:13:47;;;;;;;33.57;23.90;;;11.00;99.90;;;;;;6305526;22;20403;-87
2023/02/15 19:16:26;;;;;;;34.83;23.93;;;10.90;99.90;;;;;;6304420;22;20355;-87
2023/02/15 19:18:54;;;;;;;38.90;25.20;;;10.90;99.90;;;;;;6303832;22;20447;-87
2023/02/15 19:21:41;;;;;;;37.70;27.07;;;10.80;99.90;;;;;;6304579;22;20714;-87
2023/02/15 19:27:50;;;;;;;38.20;22.63;;;10.80;99.90;;;;;;6223440;22;20429;-87
2023/02/15 19:30:28;;;;;;;;;;;;;;;;;;;;;
2023/02/15 19:33:08;;;;;;;;;;;;;;;;;;;;;
2023/02/15 19:36:28;;;;;;;36.00;22.20;;;10.80;99.90;;;;;;6304588;22;20449;-84
2023/02/15 19:39:37;;;;;;;31.27;18.80;;;10.80;99.90;;;;;;6305140;22;20416;-87
2023/02/15 19:42:22;;;;;;;35.00;21.17;;;10.80;99.90;;;;;;6305145;22;20938;-85
2023/02/15 19:48:20;;;;;;;29.93;21.30;;;10.80;99.90;;;;;;6209686;23;20381;-87
2023/02/15 19:50:47;;;;;;;35.10;19.90;;;10.90;99.90;;;;;;6305080;22;20439;-86
2023/02/15 19:53:51;;;;;;;42.00;21.40;;;10.80;99.90;;;;;;6305182;22;20386;-88
2023/02/15 19:56:51;;;;;;;;;;;;;;;;;;;;;
2023/02/15 19:59:55;;;;;;;35.50;20.70;;;10.60;99.90;;;;;;6306945;22;20790;-89
2023/02/15 20:02:54;;;;;;;38.90;24.57;;;10.50;99.90;;;;;;6306108;22;20368;-87
2023/02/15 20:12:42;;;;;;;39.57;22.80;;;9.80;99.90;;;;;;6264928;22;20951;-88
2023/02/15 20:19:44;;;;;;;;;;;;;;;;;;;;;
2023/02/15 20:23:18;;;;;;;;;;;;;;;;;;;;;
2023/02/15 20:38:03;;;;;;;33.63;22.05;;;9.70;99.90;;;;;;6330312;22;20432;-88
2023/02/15 20:40:34;;;;;;;35.78;21.25;;;9.70;99.90;;;;;;6335046;22;20179;-87
2023/02/15 20:43:00;;;;;;;39.53;23.00;;;9.70;99.90;;;;;;6342597;22;20147;-88
2023/02/15 20:45:35;;;;;;;38.07;22.97;;;9.80;99.90;;;;;;6342500;22;20860;-87
2023/02/15 20:48:06;;;;;;;42.80;23.20;;;9.80;99.90;;;;;;6343034;22;20838;-88
2023/02/15 20:50:34;;;;;;;35.43;22.43;;;9.70;99.90;;;;;;6341437;22;20610;-87
2023/02/15 20:53:13;;;;;;;39.33;22.90;;;9.80;99.90;;;;;;6308254;22;20866;-88
2023/02/15 20:58:40;;;;;;;45.05;23.90;;;9.70;99.90;;;;;;6323835;22;20381;-88
2023/02/15 21:01:31;;;;;;;;;;;;;;;;;;;;;
2023/02/15 21:10:33;;;;;;;42.80;24.97;;;9.80;99.90;;;;;;6302491;22;20209;-87
2023/02/15 21:13:27;;;;;;;36.80;23.53;;;9.80;99.90;;;;;;6335235;22;20460;-87
2023/02/15 21:15:54;;;;;;;39.40;22.88;;;9.80;99.90;;;;;;6307788;22;20756;-87
2023/02/15 21:18:57;;;;;;;37.50;21.83;;;9.70;99.90;;;;;;6337128;22;20671;-87
2023/02/15 21:21:51;;;;;;;35.60;21.33;;;9.70;99.90;;;;;;6308861;22;20159;-87
2023/02/15 21:24:29;;;;;;;40.43;24.03;;;9.60;99.90;;;;;;6295024;22;20419;-87
2023/02/15 21:27:21;;;;;;;;;;;;;;;;;;;;;
2023/02/15 21:33:49;;;;;;;39.30;22.65;;;9.40;99.90;;;;;;6295272;22;20383;-87
2023/02/15 21:37:01;;;;;;;;;;;;;;;;;;;;;
2023/02/15 21:39:24;;;;;;;43.92;24.13;;;9.30;99.90;;;;;;6346981;22;20185;-88
2023/02/15 21:53:41;;;;;;;151.88;82.45;;;9.10;99.90;;;;;;6228061;22;20554;-87
2023/02/15 21:56:42;;;;;;;50.33;31.05;;;9.00;99.90;;;;;;6309675;22;20647;-86
2023/02/15 22:02:53;;;;;;;50.30;34.03;;;8.90;99.90;;;;;;6314334;22;20181;-87
2023/02/15 22:05:26;;;;;;;39.85;25.48;;;8.80;99.90;;;;;;6297792;22;20161;-86
2023/02/15 22:08:23;;;;;;;41.20;24.42;;;8.70;99.90;;;;;;6309652;22;20143;-88
2023/02/15 22:14:44;;;;;;;38.55;22.05;;;8.60;99.90;;;;;;6288020;22;20248;-88
2023/02/15 22:17:36;;;;;;;39.35;22.35;;;8.60;99.90;;;;;;6308902;22;20203;-85
2023/02/15 22:20:15;;;;;;;37.05;24.13;;;8.50;99.90;;;;;;6290254;22;20182;-88
2023/02/15 22:23:00;;;;;;;37.50;23.10;;;8.50;99.90;;;;;;6309427;22;20157;-88
2023/02/15 22:25:33;;;;;;;33.30;22.35;;;8.40;99.90;;;;;;6314876;22;20196;-88
2023/02/15 22:28:15;;;;;;;;;;;;;;;;;;;;;
2023/02/15 22:31:10;;;;;;;44.35;24.48;;;8.40;1.00;;;;;;6337384;22;20270;-87
2023/02/15 22:34:06;;;;;;;37.03;24.02;;;8.40;1.00;;;;;;6330400;22;20238;-87
2023/02/15 22:37:02;;;;;;;37.90;23.45;;;8.40;1.00;;;;;;6331929;22;20536;-88
2023/02/15 22:39:36;;;;;;;43.15;22.83;;;8.50;1.00;;;;;;6306285;22;20179;-87
2023/02/15 22:42:44;;;;;;;39.78;22.58;;;8.50;1.00;;;;;;6279027;22;20152;-87
2023/02/15 22:45:28;;;;;;;45.95;24.95;;;8.50;1.00;;;;;;6305426;22;20183;-87
2023/02/15 22:48:06;;;;;;;40.03;22.67;;;8.50;1.00;;;;;;6307038;22;20185;-87
2023/02/15 22:50:39;;;;;;;38.03;22.95;;;8.50;1.00;;;;;;6277959;22;20317;-87
2023/02/15 22:53:17;;;;;;;37.80;22.63;;;8.50;1.00;;;;;;6279097;22;20140;-87
2023/02/15 22:55:44;;;;;;;40.05;24.15;;;8.50;1.00;;;;;;6305775;22;20128;-87
2023/02/15 23:01:36;;;;;;;43.60;24.52;;;8.50;1.00;;;;;;6280323;22;20155;-87
2023/02/15 23:04:13;;;;;;;35.55;21.95;;;8.50;1.00;;;;;;6288443;22;20175;-88
2023/02/15 23:06:50;;;;;;;38.38;23.17;;;8.40;1.00;;;;;;6277799;22;20186;-88
2023/02/15 23:09:15;;;;;;;37.50;23.83;;;8.40;1.00;;;;;;6278967;22;20178;-87
2023/02/15 23:11:44;;;;;;;43.43;24.53;;;8.30;1.00;;;;;;6277731;22;20176;-88
2023/02/15 23:14:54;;;;;;;33.35;20.70;;;8.30;1.00;;;;;;6278855;22;20167;-88
2023/02/15 23:21:09;;;;;;;38.72;23.17;;;8.30;1.00;;;;;;6288844;22;20642;-87
2023/02/15 23:26:30;;;;;;;31.67;21.50;;;8.20;1.00;;;;;;6288481;22;20160;-88
2023/02/15 23:29:25;;;;;;;34.22;21.75;;;8.10;1.00;;;;;;6277692;22;20290;-87
2023/02/15 23:31:58;;;;;;;35.45;21.80;;;8.10;1.00;;;;;;6307041;22;20587;-86
2023/02/15 23:34:35;;;;;;;31.30;21.10;;;8.00;1.00;;;;;;6306877;22;20131;-87
2023/02/15 23:46:00;;;;;;;34.15;20.58;;;7.80;1.00;;;;;;6310547;22;20219;-87
2023/02/15 23:49:00;;;;;;;;;;;;;;;;;;;;;
2023/02/15 23:52:42;;;;;;;;;;;;;;;;;;;;;
2023/02/15 23:54:55;;;;;;;27.08;18.67;;;7.80;1.00;;;;;;6314731;22;20262;-85
